createdAt,value
2023-05-01T00:01:06.059Z,5.62
2023-05-01T00:03:34.044Z,7.65
2023-05-01T00:06:04.319Z,4.95
2023-05-01T00:08:32.405Z,7.30
2023-05-01T00:11:09.814Z,5.12
2023-05-01T00:13:37.515Z,5.07
2023-05-01T00:16:10.032Z,4.30
2023-05-01T00:21:05.336Z,5.03
2023-05-01T00:23:32.729Z,6.82
2023-05-01T00:26:00.153Z,3.92
2023-05-01T00:28:27.836Z,5.43
2023-05-01T00:30:55.438Z,5.72
2023-05-01T00:33:22.812Z,4.53
2023-05-01T00:35:51.434Z,5.57
2023-05-01T00:38:18.954Z,5.50
2023-05-01T00:40:47.230Z,4.80
2023-05-01T00:43:14.971Z,4.32
2023-05-01T00:45:45.334Z,4.60
2023-05-01T00:48:13.068Z,3.58
2023-05-01T00:50:41.107Z,6.90
2023-05-01T00:53:08.877Z,7.15
2023-05-01T00:55:37.195Z,5.30
2023-05-01T00:58:05.094Z,5.60
2023-05-01T01:00:32.665Z,4.70
2023-05-01T01:03:00.151Z,4.07
2023-05-01T01:05:30.746Z,4.60
2023-05-01T01:08:30.706Z,5.72
2023-05-01T01:11:19.798Z,4.13
2023-05-01T01:13:58.377Z,3.85
2023-05-01T01:16:39.043Z,4.95
2023-05-01T01:19:54.501Z,5.12
2023-05-01T01:22:24.218Z,5.00
2023-05-01T01:25:19.598Z,5.68
2023-05-01T01:28:05.765Z,6.03
2023-05-01T01:30:48.345Z,5.32
2023-05-01T01:33:49.572Z,4.93
2023-05-01T01:36:41.189Z,4.80
2023-05-01T01:39:21.038Z,4.85
2023-05-01T01:41:51.469Z,6.82
2023-05-01T01:44:27.985Z,5.72
2023-05-01T01:46:55.529Z,4.85
2023-05-01T01:49:26.682Z,7.70
2023-05-01T01:51:55.227Z,6.30
2023-05-01T01:54:30.804Z,7.10
2023-05-01T01:56:59.878Z,6.70
2023-05-01T01:59:31.060Z,5.53
2023-05-01T02:01:59.068Z,6.35
2023-05-01T02:04:28.272Z,5.20
2023-05-01T02:06:58.289Z,6.65
2023-05-01T02:09:27.047Z,6.18
2023-05-01T02:11:55.950Z,5.43
2023-05-01T02:14:26.185Z,7.32
2023-05-01T02:16:54.041Z,4.87
2023-05-01T02:19:22.430Z,4.35
2023-05-01T02:21:50.700Z,6.45
2023-05-01T02:24:19.800Z,6.00
2023-05-01T02:26:50.350Z,7.75
2023-05-01T02:29:18.202Z,5.82
2023-05-01T02:31:45.601Z,7.40
2023-05-01T02:34:13.117Z,6.45
2023-05-01T02:36:40.920Z,4.03
2023-05-01T02:39:08.492Z,6.82
2023-05-01T02:41:37.162Z,6.68
2023-05-01T02:44:06.535Z,5.95
2023-05-01T02:46:36.918Z,7.43
2023-05-01T02:49:05.964Z,8.40
2023-05-01T02:51:35.069Z,8.73
2023-05-01T02:54:03.306Z,6.28
2023-05-01T02:56:31.466Z,9.73
2023-05-01T02:58:58.864Z,7.20
2023-05-01T03:01:27.936Z,7.53
2023-05-01T03:03:55.824Z,6.28
2023-05-01T03:06:23.368Z,6.60
2023-05-01T03:08:51.512Z,8.25
2023-05-01T03:11:19.157Z,6.30
2023-05-01T03:13:47.625Z,5.82
2023-05-01T03:16:15.141Z,5.28
2023-05-01T03:18:42.863Z,6.37
2023-05-01T03:21:10.265Z,7.03
2023-05-01T03:23:38.371Z,7.30
2023-05-01T03:26:07.725Z,6.00
2023-05-01T03:28:35.167Z,4.93
2023-05-01T03:31:02.751Z,4.78
2023-05-01T03:33:31.696Z,6.12
2023-05-01T03:36:03.762Z,6.97
2023-05-01T03:38:32.155Z,6.25
2023-05-01T03:41:02.669Z,6.20
2023-05-01T03:43:32.255Z,7.10
2023-05-01T03:46:00.960Z,5.47
2023-05-01T03:48:28.760Z,5.25
2023-05-01T03:50:58.310Z,6.35
2023-05-01T03:53:26.106Z,5.90
2023-05-01T03:55:53.631Z,5.97
2023-05-01T03:58:22.249Z,7.68
2023-05-01T04:00:51.078Z,5.65
2023-05-01T04:03:19.166Z,5.25
2023-05-01T04:05:47.374Z,7.37
2023-05-01T04:08:14.897Z,3.58
2023-05-01T04:10:42.571Z,4.68
2023-05-01T04:13:10.825Z,3.97
2023-05-01T04:15:39.100Z,6.32
2023-05-01T04:18:06.884Z,4.93
2023-05-01T04:20:35.755Z,8.10
2023-05-01T04:23:03.316Z,4.90
2023-05-01T04:25:31.128Z,6.50
2023-05-01T04:27:59.866Z,4.68
2023-05-01T04:30:27.347Z,7.12
2023-05-01T04:32:55.244Z,4.55
2023-05-01T04:35:23.591Z,5.00
2023-05-01T04:37:51.713Z,5.85
2023-05-01T04:40:19.468Z,4.85
2023-05-01T04:42:47.354Z,4.10
2023-05-01T04:45:14.967Z,6.60
2023-05-01T04:47:42.765Z,5.90
2023-05-01T04:50:10.814Z,5.30
2023-05-01T04:52:38.610Z,6.10
2023-05-01T04:55:07.050Z,6.53
2023-05-01T04:57:35.369Z,6.15
2023-05-01T05:00:05.625Z,6.22
2023-05-01T05:02:34.016Z,5.37
2023-05-01T05:05:01.670Z,5.85
2023-05-01T05:07:29.178Z,6.70
2023-05-01T05:09:59.610Z,4.18
2023-05-01T05:12:27.132Z,7.22
2023-05-01T05:14:54.640Z,6.90
2023-05-01T05:17:22.417Z,8.05
2023-05-01T05:19:49.943Z,5.55
2023-05-01T05:22:17.485Z,5.65
2023-05-01T05:24:47.637Z,8.00
2023-05-01T05:27:15.905Z,5.82
2023-05-01T05:29:43.363Z,6.05
2023-05-01T05:32:11.578Z,7.15
2023-05-01T05:34:39.321Z,6.25
2023-05-01T05:37:07.098Z,7.20
2023-05-01T05:39:37.963Z,5.07
2023-05-01T05:42:06.049Z,4.37
2023-05-01T05:44:35.936Z,6.80
2023-05-01T05:47:03.960Z,6.03
2023-05-01T05:49:33.933Z,7.62
2023-05-01T05:52:01.496Z,5.15
2023-05-01T05:54:30.000Z,4.50
2023-05-01T05:56:57.530Z,4.90
2023-05-01T05:59:25.415Z,6.80
2023-05-01T06:01:53.190Z,5.70
2023-05-01T06:04:20.929Z,4.68
2023-05-01T06:06:49.108Z,4.70
2023-05-01T06:09:19.167Z,5.78
2023-05-01T06:11:47.731Z,4.20
2023-05-01T06:14:16.707Z,5.05
2023-05-01T06:16:44.530Z,5.20
2023-05-01T06:19:12.878Z,9.15
2023-05-01T06:21:40.664Z,6.37
2023-05-01T06:24:09.892Z,6.68
2023-05-01T06:26:37.781Z,6.62
2023-05-01T06:29:05.302Z,6.50
2023-05-01T06:31:32.976Z,6.07
2023-05-01T06:34:00.750Z,5.55
2023-05-01T06:36:28.567Z,3.92
2023-05-01T06:38:56.684Z,3.70
2023-05-01T06:41:25.808Z,5.32
2023-05-01T06:43:53.352Z,4.00
2023-05-01T06:46:20.846Z,4.37
2023-05-01T06:48:48.884Z,3.25
2023-05-01T06:51:16.451Z,4.20
2023-05-01T06:53:43.866Z,4.28
2023-05-01T06:56:11.555Z,2.85
2023-05-01T06:58:38.983Z,3.53
2023-05-01T07:01:07.416Z,5.22
2023-05-01T07:03:35.239Z,3.75
2023-05-01T07:06:02.790Z,7.07
2023-05-01T07:08:30.805Z,3.20
2023-05-01T07:10:58.670Z,3.75
2023-05-01T07:13:27.417Z,7.53
2023-05-01T07:15:55.224Z,2.90
2023-05-01T07:18:23.420Z,3.97
2023-05-01T07:20:50.897Z,6.45
2023-05-01T07:23:18.374Z,3.70
2023-05-01T07:25:46.376Z,5.25
2023-05-01T07:28:13.825Z,8.25
2023-05-01T07:30:41.768Z,4.05
2023-05-01T07:33:09.689Z,3.33
2023-05-01T07:35:37.666Z,4.97
2023-05-01T07:38:05.165Z,2.50
2023-05-01T07:40:34.875Z,3.97
2023-05-01T07:43:02.637Z,3.35
2023-05-01T07:45:30.096Z,3.80
2023-05-01T07:47:57.897Z,4.07
2023-05-01T07:50:26.036Z,4.62
2023-05-01T07:52:53.798Z,3.53
2023-05-01T07:55:22.748Z,2.30
2023-05-01T07:57:50.653Z,2.80
2023-05-01T08:00:18.773Z,4.37
2023-05-01T08:02:46.591Z,4.07
2023-05-01T08:05:14.339Z,3.25
2023-05-01T08:07:41.708Z,3.08
2023-05-01T08:10:09.666Z,2.78
2023-05-01T08:12:37.101Z,4.32
2023-05-01T08:15:05.269Z,4.80
2023-05-01T08:17:33.020Z,4.37
2023-05-01T08:20:04.430Z,2.30
2023-05-01T08:22:32.108Z,4.68
2023-05-01T08:24:59.775Z,3.95
2023-05-01T08:27:27.399Z,5.50
2023-05-01T08:29:55.082Z,4.85
2023-05-01T08:32:22.929Z,5.95
2023-05-01T08:34:50.317Z,5.82
2023-05-01T08:37:19.143Z,5.43
2023-05-01T08:39:46.801Z,2.60
2023-05-01T08:42:14.316Z,5.32
2023-05-01T08:44:43.013Z,3.87
2023-05-01T08:47:13.336Z,5.82
2023-05-01T08:49:42.026Z,2.17
2023-05-01T08:52:12.031Z,4.62
2023-05-01T08:54:42.806Z,4.10
2023-05-01T08:57:11.476Z,3.33
2023-05-01T08:59:39.978Z,4.53
2023-05-01T09:02:09.494Z,5.53
2023-05-01T09:04:40.952Z,5.50
2023-05-01T09:07:10.090Z,8.32
2023-05-01T09:09:37.573Z,4.05
2023-05-01T09:12:25.926Z,4.55
2023-05-01T09:14:54.924Z,4.43
2023-05-01T09:17:23.747Z,2.40
2023-05-01T09:19:51.434Z,3.90
2023-05-01T09:22:19.545Z,2.55
2023-05-01T09:24:47.087Z,2.90
2023-05-01T09:27:15.116Z,2.25
2023-05-01T09:29:44.493Z,3.95
2023-05-01T09:32:21.223Z,2.78
2023-05-01T09:34:49.983Z,5.43
2023-05-01T09:37:31.649Z,2.70
2023-05-01T09:40:13.565Z,3.62
2023-05-01T09:42:49.338Z,3.58
2023-05-01T09:45:17.441Z,6.55
2023-05-01T09:47:48.026Z,3.33
2023-05-01T09:50:32.387Z,3.03
2023-05-01T09:53:05.129Z,3.10
2023-05-01T09:55:33.559Z,5.78
2023-05-01T09:58:02.582Z,3.42
2023-05-01T10:00:30.313Z,6.45
2023-05-01T10:02:58.209Z,4.07
2023-05-01T10:05:26.294Z,2.55
2023-05-01T10:07:58.226Z,4.35
2023-05-01T10:12:53.253Z,5.10
2023-05-01T10:15:26.163Z,2.22
2023-05-01T10:17:55.633Z,5.10
2023-05-01T10:20:23.229Z,1.48
2023-05-01T10:22:50.713Z,4.30
2023-05-01T10:25:20.079Z,4.12
2023-05-01T10:27:48.495Z,3.75
2023-05-01T10:30:17.347Z,2.92
2023-05-01T10:32:45.962Z,4.20
2023-05-01T10:35:16.270Z,4.43
2023-05-01T10:37:48.833Z,2.28
2023-05-01T10:40:43.919Z,3.97
2023-05-01T10:43:25.759Z,3.10
2023-05-01T10:46:12.778Z,4.93
2023-05-01T10:48:43.755Z,2.47
2023-05-01T10:51:11.495Z,3.50
2023-05-01T10:53:40.726Z,4.55
2023-05-01T10:56:26.994Z,3.83
2023-05-01T10:59:04.716Z,2.10
2023-05-01T11:01:39.743Z,1.98
2023-05-01T11:04:22.856Z,2.92
2023-05-01T11:07:05.630Z,5.37
2023-05-01T11:09:54.674Z,2.80
2023-05-01T11:12:46.999Z,2.20
2023-05-01T11:15:33.982Z,3.55
2023-05-01T11:18:02.450Z,2.75
2023-05-01T11:20:36.461Z,3.62
2023-05-01T11:23:03.913Z,2.20
2023-05-01T11:25:31.886Z,2.53
2023-05-01T11:28:01.742Z,2.67
2023-05-01T11:30:42.013Z,4.95
2023-05-01T11:33:10.881Z,2.75
2023-05-01T11:35:39.274Z,1.85
2023-05-01T11:38:06.753Z,4.55
2023-05-01T11:40:35.039Z,4.80
2023-05-01T11:43:04.483Z,3.83
2023-05-01T11:45:33.094Z,1.98
2023-05-01T11:48:04.523Z,3.12
2023-05-01T11:50:37.180Z,3.15
2023-05-01T11:53:11.855Z,1.70
2023-05-01T11:55:40.258Z,2.20
2023-05-01T11:58:08.136Z,2.20
2023-05-01T12:00:38.027Z,2.83
2023-05-01T12:03:10.316Z,3.47
2023-05-01T12:05:39.877Z,6.60
2023-05-01T12:08:20.884Z,1.40
2023-05-01T12:10:52.283Z,3.28
2023-05-01T12:13:20.655Z,2.20
2023-05-01T12:15:52.480Z,2.67
2023-05-01T12:18:23.638Z,2.25
2023-05-01T12:20:52.946Z,3.97
2023-05-01T12:23:34.745Z,4.10
2023-05-01T12:26:05.247Z,4.10
2023-05-01T12:28:32.953Z,1.55
2023-05-01T12:31:05.489Z,3.85
2023-05-01T12:33:33.381Z,1.12
2023-05-01T12:36:11.859Z,2.92
2023-05-01T12:38:39.611Z,1.95
2023-05-01T12:41:09.372Z,3.28
2023-05-01T12:43:38.024Z,2.65
2023-05-01T12:46:06.102Z,4.12
2023-05-01T12:48:34.357Z,2.67
2023-05-01T12:51:04.982Z,2.17
2023-05-01T12:53:33.494Z,4.82
2023-05-01T12:56:03.180Z,1.90
2023-05-01T12:58:37.974Z,2.53
2023-05-01T13:01:06.739Z,2.40
2023-05-01T13:03:35.317Z,1.98
2023-05-01T13:06:05.856Z,3.33
2023-05-01T13:08:36.796Z,1.52
2023-05-01T13:11:17.451Z,3.75
2023-05-01T13:13:45.949Z,3.12
2023-05-01T13:16:16.994Z,3.67
2023-05-01T13:18:44.672Z,3.75
2023-05-01T13:21:14.686Z,1.37
2023-05-01T13:23:43.966Z,3.67
2023-05-01T13:26:12.189Z,2.40
2023-05-01T13:28:46.683Z,1.70
2023-05-01T13:31:15.089Z,2.30
2023-05-01T13:33:45.642Z,1.45
2023-05-01T13:36:25.167Z,4.55
2023-05-01T13:38:57.007Z,1.85
2023-05-01T13:41:26.161Z,1.20
2023-05-01T13:43:55.934Z,3.90
2023-05-01T13:46:25.804Z,1.92
2023-05-01T13:48:53.588Z,1.40
2023-05-01T13:51:26.417Z,2.53
2023-05-01T13:53:59.377Z,1.33
2023-05-01T13:56:26.864Z,2.15
2023-05-01T13:58:54.564Z,3.65
2023-05-01T14:01:22.699Z,2.40
2023-05-01T14:03:50.777Z,2.78
2023-05-01T14:06:21.370Z,1.23
2023-05-01T14:08:49.172Z,2.15
2023-05-01T14:11:18.201Z,4.03
2023-05-01T14:13:51.069Z,2.72
2023-05-01T14:16:27.187Z,2.80
2023-05-01T14:18:57.154Z,1.90
2023-05-01T14:21:27.932Z,1.33
2023-05-01T14:23:57.202Z,2.33
2023-05-01T14:26:25.052Z,3.62
2023-05-01T14:28:52.781Z,2.17
2023-05-01T14:31:27.655Z,1.30
2023-05-01T14:33:57.869Z,1.52
2023-05-01T14:36:25.578Z,2.75
2023-05-01T14:38:56.307Z,2.47
2023-05-01T14:41:24.188Z,1.58
2023-05-01T14:43:54.256Z,0.90
2023-05-01T14:46:32.736Z,0.98
2023-05-01T14:49:03.636Z,2.33
2023-05-01T14:51:32.304Z,1.62
2023-05-01T14:54:00.273Z,6.00
2023-05-01T14:56:27.802Z,1.62
2023-05-01T14:58:55.407Z,1.67
2023-05-01T15:01:23.324Z,2.53
2023-05-01T15:03:50.922Z,1.37
2023-05-01T15:06:18.459Z,1.60
2023-05-01T15:08:46.885Z,3.80
2023-05-01T15:11:14.483Z,1.98
2023-05-01T15:13:44.160Z,2.50
2023-05-01T15:16:12.166Z,2.00
2023-05-01T15:18:39.910Z,4.90
2023-05-01T15:21:07.412Z,4.10
2023-05-01T15:23:36.909Z,12.43
2023-05-01T15:26:04.297Z,25.42
2023-05-01T15:28:32.543Z,33.10
2023-05-01T15:31:00.215Z,29.42
2023-05-01T15:33:27.783Z,5.82
2023-05-01T15:35:55.490Z,15.77
2023-05-01T15:38:24.114Z,5.07
2023-05-01T15:40:52.036Z,7.85
2023-05-01T15:43:19.480Z,18.75
2023-05-01T15:45:47.409Z,21.40
2023-05-01T15:48:14.875Z,9.00
2023-05-01T15:50:42.549Z,10.38
2023-05-01T15:53:10.353Z,15.15
2023-05-01T15:55:37.774Z,4.80
2023-05-01T15:58:05.221Z,14.48
2023-05-01T16:00:38.181Z,11.25
2023-05-01T16:03:07.733Z,5.45
2023-05-01T16:05:36.837Z,6.50
2023-05-01T16:08:05.925Z,7.60
2023-05-01T16:10:37.329Z,5.62
2023-05-01T16:13:08.771Z,5.87
2023-05-01T16:15:37.058Z,4.28
2023-05-01T16:18:05.058Z,2.45
2023-05-01T16:20:41.874Z,4.47
2023-05-01T16:23:09.667Z,3.53
2023-05-01T16:25:42.354Z,4.72
2023-05-01T16:28:10.259Z,2.85
2023-05-01T16:30:41.891Z,1.70
2023-05-01T16:33:18.260Z,2.20
2023-05-01T16:35:48.313Z,2.75
2023-05-01T16:38:17.082Z,3.62
2023-05-01T16:40:46.012Z,5.97
2023-05-01T16:43:13.665Z,6.30
2023-05-01T16:45:41.916Z,3.50
2023-05-01T16:48:09.478Z,6.53
2023-05-01T16:50:40.094Z,2.35
2023-05-01T16:53:07.987Z,4.37
2023-05-01T16:55:35.606Z,4.87
2023-05-01T16:58:03.113Z,6.53
2023-05-01T17:00:31.329Z,8.32
2023-05-01T17:02:59.128Z,3.62
2023-05-01T17:05:26.952Z,4.18
2023-05-01T17:07:54.604Z,3.45
2023-05-01T17:10:22.021Z,3.33
2023-05-01T17:12:49.517Z,4.32
2023-05-01T17:15:18.183Z,5.15
2023-05-01T17:17:45.633Z,4.35
2023-05-01T17:20:14.006Z,4.60
2023-05-01T17:22:41.893Z,2.90
2023-05-01T17:25:09.458Z,3.55
2023-05-01T17:27:37.703Z,3.92
2023-05-01T17:30:06.059Z,3.10
2023-05-01T17:32:36.996Z,3.45
2023-05-01T17:35:06.093Z,7.43
2023-05-01T17:37:33.481Z,5.10
2023-05-01T17:40:01.449Z,5.22
2023-05-01T17:42:29.513Z,10.48
2023-05-01T17:44:56.911Z,11.32
2023-05-01T17:47:26.111Z,10.00
2023-05-01T17:49:54.300Z,17.08
2023-05-01T17:52:21.791Z,21.90
2023-05-01T17:54:49.318Z,18.58
2023-05-01T17:57:17.149Z,11.40
2023-05-01T17:59:44.805Z,10.27
2023-05-01T18:02:12.517Z,34.13
2023-05-01T18:04:40.401Z,16.37
2023-05-01T18:07:07.848Z,13.88
2023-05-01T18:09:35.419Z,11.00
2023-05-01T18:12:03.241Z,14.00
2023-05-01T18:14:30.711Z,18.02
2023-05-01T18:16:58.300Z,14.80
2023-05-01T18:19:26.103Z,12.82
2023-05-01T18:21:53.515Z,10.93
2023-05-01T18:24:21.101Z,7.78
2023-05-01T18:26:48.896Z,10.35
2023-05-01T18:29:16.477Z,9.77
2023-05-01T18:31:43.974Z,13.02
2023-05-01T18:34:12.626Z,9.75
2023-05-01T18:36:43.661Z,7.00
2023-05-01T18:39:13.390Z,8.65
2023-05-01T18:41:40.776Z,9.85
2023-05-01T18:44:08.202Z,11.35
2023-05-01T18:46:36.876Z,10.60
2023-05-01T18:49:04.526Z,8.65
2023-05-01T18:51:32.316Z,5.43
2023-05-01T18:54:02.062Z,5.60
2023-05-01T18:56:31.077Z,5.47
2023-05-01T18:58:58.583Z,9.02
2023-05-01T19:01:26.410Z,5.68
2023-05-01T19:03:58.873Z,5.00
2023-05-01T19:06:26.974Z,5.78
2023-05-01T19:08:54.630Z,5.85
2023-05-01T19:11:22.300Z,4.90
2023-05-01T19:13:52.668Z,6.60
2023-05-01T19:16:22.720Z,5.03
2023-05-01T19:18:50.605Z,4.87
2023-05-01T19:21:18.176Z,6.15
2023-05-01T19:23:46.580Z,5.85
2023-05-01T19:26:14.701Z,12.95
2023-05-01T19:28:42.465Z,7.00
2023-05-01T19:31:12.342Z,4.97
2023-05-01T19:33:41.203Z,7.65
2023-05-01T19:36:08.714Z,9.57
2023-05-01T19:38:36.219Z,5.00
2023-05-01T19:41:12.049Z,7.47
2023-05-01T19:43:45.030Z,8.18
2023-05-01T19:46:12.809Z,6.20
2023-05-01T19:48:40.504Z,5.75
2023-05-01T19:51:07.925Z,5.68
2023-05-01T19:53:36.214Z,3.95
2023-05-01T19:56:03.735Z,6.90
2023-05-01T19:58:31.214Z,5.12
2023-05-01T20:01:02.218Z,4.90
2023-05-01T20:03:30.032Z,8.48
2023-05-01T20:05:57.524Z,9.05
2023-05-01T20:08:25.170Z,9.48
2023-05-01T20:10:52.873Z,11.18
2023-05-01T20:13:20.273Z,11.43
2023-05-01T20:15:47.689Z,10.32
2023-05-01T20:18:16.763Z,8.25
2023-05-01T20:20:44.199Z,11.65
2023-05-01T20:23:15.915Z,9.30
2023-05-01T20:25:43.899Z,8.32
2023-05-01T20:28:12.975Z,8.68
2023-05-01T20:30:41.213Z,10.25
2023-05-01T20:33:09.299Z,9.75
2023-05-01T20:35:37.172Z,11.88
2023-05-01T20:38:05.069Z,11.75
2023-05-01T20:40:33.495Z,11.73
2023-05-01T20:43:00.914Z,9.43
2023-05-01T20:45:31.888Z,8.07
2023-05-01T20:48:00.157Z,9.55
2023-05-01T20:50:28.129Z,8.25
2023-05-01T20:52:56.361Z,10.55
2023-05-01T20:55:24.270Z,11.65
2023-05-01T20:57:51.706Z,13.32
2023-05-01T21:00:19.142Z,11.50
2023-05-01T21:02:47.079Z,14.95
2023-05-01T21:05:16.244Z,17.27
2023-05-01T21:07:43.730Z,13.68
2023-05-01T21:10:12.081Z,13.90
2023-05-01T21:12:40.025Z,15.25
2023-05-01T21:15:08.062Z,11.95
2023-05-01T21:17:36.394Z,16.35
2023-05-01T21:20:16.732Z,11.45
2023-05-01T21:22:45.685Z,12.65
2023-05-01T21:25:15.443Z,12.93
2023-05-01T21:27:42.845Z,16.05
2023-05-01T21:30:15.342Z,14.45
2023-05-01T21:32:42.982Z,11.05
2023-05-01T21:35:11.533Z,9.68
2023-05-01T21:37:48.718Z,9.93
2023-05-01T21:40:21.345Z,10.40
2023-05-01T21:42:48.855Z,10.75
2023-05-01T21:45:18.291Z,10.90
2023-05-01T21:47:47.785Z,10.52
2023-05-01T21:50:17.746Z,10.48
2023-05-01T21:52:46.620Z,7.25
2023-05-01T21:55:20.428Z,8.38
2023-05-01T21:57:49.996Z,10.50
2023-05-01T22:00:18.951Z,9.57
2023-05-01T22:02:48.660Z,8.88
2023-05-01T22:05:18.776Z,11.00
2023-05-01T22:07:47.089Z,6.45
2023-05-01T22:10:17.037Z,8.10
2023-05-01T22:12:45.334Z,7.62
2023-05-01T22:15:15.529Z,8.27
2023-05-01T22:17:44.426Z,8.73
2023-05-01T22:20:12.245Z,6.43
2023-05-01T22:22:41.173Z,8.18
2023-05-01T22:25:09.870Z,7.60
2023-05-01T22:27:37.616Z,8.40
2023-05-01T22:30:05.746Z,8.32
2023-05-01T22:32:33.938Z,6.85
2023-05-01T22:35:01.681Z,6.20
2023-05-01T22:37:30.155Z,8.68
2023-05-01T22:39:58.346Z,5.85
2023-05-01T22:42:26.164Z,6.72
2023-05-01T22:44:53.569Z,5.93
2023-05-01T22:47:21.210Z,8.00
2023-05-01T22:49:48.666Z,7.20
2023-05-01T22:52:16.276Z,4.80
2023-05-01T22:54:43.945Z,5.40
2023-05-01T22:57:11.440Z,5.68
2023-05-01T22:59:40.474Z,5.53
2023-05-01T23:02:08.611Z,5.60
2023-05-01T23:04:36.413Z,5.05
2023-05-01T23:07:03.891Z,4.40
2023-05-01T23:09:32.378Z,6.37
2023-05-01T23:11:59.953Z,4.65
2023-05-01T23:14:27.630Z,4.85
2023-05-01T23:16:55.291Z,3.40
2023-05-01T23:19:24.576Z,5.32
2023-05-01T23:22:06.932Z,5.72
2023-05-01T23:24:43.263Z,6.30
2023-05-01T23:27:12.305Z,5.03
2023-05-01T23:29:40.589Z,6.03
2023-05-01T23:32:26.791Z,6.85
2023-05-01T23:34:55.560Z,5.05
2023-05-01T23:37:23.281Z,6.22
2023-05-01T23:39:52.487Z,5.07
2023-05-01T23:42:21.338Z,4.28
2023-05-01T23:44:48.887Z,4.68
2023-05-01T23:47:16.449Z,5.65
2023-05-01T23:49:44.232Z,6.70
2023-05-01T23:52:12.021Z,5.72
2023-05-01T23:54:39.412Z,6.50
2023-05-01T23:57:07.086Z,6.12
2023-05-01T23:59:35.394Z,6.75
